Allbright, Missouri
Current Conditions -  °F | °C
As of 7:15 AM on Friday 31 Oct 2014 (Local Time) from KFAM Reporting Station
Overcast Overcast  
Wind Chill: 40°   Ceiling: 6500
Heat Index: 45°   Visibility: 8mi
Dew Point: 41°   Wind: 9mph
Humidity: 87%   Direction: 290°WNW
Pressure: 30.16"   Gusts: 17mph
Location:  37.4061°N, 90.1985°W
Report Text: KFAM 311215Z AUTO 29008G15KT 8SM FEW007 FEW016 OVC065 07/05 A3016 RMK AO1
Loading
Personal Weather Stations






























Interactive Weather Map
Tropical Storm Tracking
New forecast layout! Learn more

10-Day Weather Forecast

Advertisements
Track Severe Weather on mobile